createdAt,value
2023-03-26T00:02:21.408Z,98300.21
2023-03-26T00:04:50.274Z,98305.77
2023-03-26T00:07:17.988Z,98306.63
2023-03-26T00:09:45.690Z,98304.23
2023-03-26T00:12:13.353Z,98305.33
2023-03-26T00:14:41.138Z,98303.98
2023-03-26T00:17:08.981Z,98304.66
2023-03-26T00:19:37.261Z,98309.04
2023-03-26T00:22:06.161Z,98313.27
2023-03-26T00:24:34.018Z,98308.94
2023-03-26T00:27:02.085Z,98310.20
2023-03-26T00:29:33.436Z,98306.33
2023-03-26T00:32:01.920Z,98306.68
2023-03-26T00:34:29.990Z,98305.17
2023-03-26T00:37:02.702Z,98306.57
2023-03-26T00:39:33.876Z,98305.20
2023-03-26T00:42:07.006Z,98303.86
2023-03-26T00:44:34.793Z,98310.16
2023-03-26T00:47:03.762Z,98305.52
2023-03-26T00:49:32.254Z,98308.68
2023-03-26T00:52:00.214Z,98305.25
2023-03-26T00:54:28.697Z,98308.04
2023-03-26T00:56:56.545Z,98304.23
2023-03-26T00:59:24.392Z,98299.30
2023-03-26T01:01:55.376Z,98297.73
2023-03-26T01:04:27.941Z,98296.55
2023-03-26T01:06:56.432Z,98296.56
2023-03-26T01:09:24.494Z,98296.39
2023-03-26T01:11:52.158Z,98299.86
2023-03-26T01:14:19.826Z,98301.08
2023-03-26T01:16:50.137Z,98299.69
2023-03-26T01:19:18.010Z,98303.35
2023-03-26T01:21:47.515Z,98304.60
2023-03-26T01:24:15.176Z,98306.69
2023-03-26T01:26:42.837Z,98306.17
2023-03-26T01:29:10.467Z,98303.38
2023-03-26T01:31:38.979Z,98301.66
2023-03-26T01:34:06.624Z,98296.31
2023-03-26T01:36:34.303Z,98297.14
2023-03-26T01:39:01.965Z,98293.61
2023-03-26T01:41:29.833Z,98290.32
2023-03-26T01:43:58.587Z,98291.91
2023-03-26T01:46:26.324Z,98294.85
2023-03-26T01:48:54.249Z,98289.44
2023-03-26T01:51:21.917Z,98290.48
2023-03-26T01:53:49.570Z,98290.84
2023-03-26T01:56:17.232Z,98284.98
2023-03-26T01:58:44.894Z,98288.98
2023-03-26T02:01:12.904Z,98290.24
2023-03-26T02:03:40.659Z,98282.80
2023-03-26T02:06:08.599Z,98282.11
2023-03-26T02:08:36.261Z,98280.57
2023-03-26T02:11:04.612Z,98271.55
2023-03-26T02:13:32.400Z,98272.88
2023-03-26T02:16:00.201Z,98275.64
2023-03-26T02:18:36.502Z,98273.59
2023-03-26T02:21:04.396Z,98271.52
2023-03-26T02:23:36.009Z,98277.09
2023-03-26T02:26:03.818Z,98273.62
2023-03-26T02:28:31.790Z,98275.55
2023-03-26T02:31:02.108Z,98270.68
2023-03-26T02:33:29.770Z,98275.39
2023-03-26T02:36:02.226Z,98271.81
2023-03-26T02:38:30.110Z,98268.70
2023-03-26T02:40:57.770Z,98270.73
2023-03-26T02:43:25.739Z,98268.61
2023-03-26T02:45:53.605Z,98263.24
2023-03-26T02:48:22.075Z,98258.56
2023-03-26T02:50:50.466Z,98256.13
2023-03-26T02:53:18.129Z,98256.29
2023-03-26T02:55:45.903Z,98256.27
2023-03-26T02:58:17.747Z,98257.34
2023-03-26T03:00:47.464Z,98253.72
2023-03-26T03:03:17.375Z,98257.77
2023-03-26T03:05:45.139Z,98259.54
2023-03-26T03:08:13.518Z,98259.92
2023-03-26T03:10:41.384Z,98269.45
2023-03-26T03:13:09.149Z,98266.64
2023-03-26T03:15:36.914Z,98268.54
2023-03-26T03:18:04.582Z,98266.30
2023-03-26T03:20:35.434Z,98267.67
2023-03-26T03:23:03.287Z,98264.40
2023-03-26T03:25:31.145Z,98265.59
2023-03-26T03:27:59.119Z,98275.69
2023-03-26T03:30:26.881Z,98276.39
2023-03-26T03:32:54.554Z,98277.11
2023-03-26T03:35:22.328Z,98278.37
2023-03-26T03:37:50.072Z,98279.59
2023-03-26T03:40:17.742Z,98282.90
2023-03-26T03:42:45.599Z,98284.74
2023-03-26T03:45:13.262Z,98290.44
2023-03-26T03:47:41.063Z,98280.23
2023-03-26T03:50:08.894Z,98273.70
2023-03-26T03:52:36.658Z,98276.69
2023-03-26T03:55:04.419Z,98271.84
2023-03-26T03:57:33.721Z,98281.23
2023-03-26T04:00:01.693Z,98277.79
2023-03-26T04:02:35.221Z,98278.14
2023-03-26T04:05:03.161Z,98278.17
2023-03-26T04:07:31.440Z,98277.11
2023-03-26T04:10:00.297Z,98274.08
2023-03-26T04:12:28.436Z,98271.98
2023-03-26T04:14:56.262Z,98271.50
2023-03-26T04:17:24.078Z,98271.54
2023-03-26T04:19:53.145Z,98271.58
2023-03-26T04:22:21.803Z,98272.80
2023-03-26T04:24:50.389Z,98273.86
2023-03-26T04:27:18.016Z,98272.13
2023-03-26T04:29:45.719Z,98272.49
2023-03-26T04:32:14.498Z,98268.88
2023-03-26T04:34:46.176Z,98268.33
2023-03-26T04:37:14.433Z,98266.55
2023-03-26T04:39:42.096Z,98263.98
2023-03-26T04:42:09.762Z,98265.36
2023-03-26T04:44:37.519Z,98264.14
2023-03-26T04:47:05.193Z,98258.07
2023-03-26T04:49:32.946Z,98262.73
2023-03-26T04:52:00.559Z,98262.40
2023-03-26T04:54:28.275Z,98262.23
2023-03-26T04:56:56.956Z,98262.27
2023-03-26T04:59:26.588Z,98260.85
2023-03-26T05:01:54.426Z,98264.45
2023-03-26T05:04:22.173Z,98264.44
2023-03-26T05:06:50.060Z,98259.40
2023-03-26T05:09:17.717Z,98263.20
2023-03-26T05:11:45.585Z,98269.93
2023-03-26T05:14:13.249Z,98268.73
2023-03-26T05:16:41.608Z,98272.77
2023-03-26T05:19:09.391Z,98272.45
2023-03-26T05:21:37.150Z,98273.50
2023-03-26T05:24:06.449Z,98270.73
2023-03-26T05:26:34.112Z,98264.27
2023-03-26T05:29:03.215Z,98265.64
2023-03-26T05:31:33.942Z,98272.77
2023-03-26T05:34:01.894Z,98272.59
2023-03-26T05:36:29.680Z,98270.01
2023-03-26T05:38:57.440Z,98268.48
2023-03-26T05:41:25.102Z,98266.58
2023-03-26T05:43:52.829Z,98265.86
2023-03-26T05:46:22.119Z,98262.30
2023-03-26T05:48:50.042Z,98258.95
2023-03-26T05:51:17.698Z,98258.38
2023-03-26T05:53:45.461Z,98255.59
2023-03-26T05:56:13.229Z,98252.78
2023-03-26T05:58:42.217Z,98257.44
2023-03-26T06:01:10.086Z,98252.89
2023-03-26T06:03:37.863Z,98249.25
2023-03-26T06:06:05.914Z,98248.88
2023-03-26T06:08:33.789Z,98249.54
2023-03-26T06:11:01.864Z,98251.18
2023-03-26T06:13:29.516Z,98251.09
2023-03-26T06:15:58.608Z,98255.22
2023-03-26T06:18:26.729Z,98257.10
2023-03-26T06:20:54.840Z,98262.98
2023-03-26T06:23:23.575Z,98264.87
2023-03-26T06:25:51.408Z,98259.77
2023-03-26T06:28:19.250Z,98266.54
2023-03-26T06:30:47.043Z,98261.52
2023-03-26T06:33:14.708Z,98261.34
2023-03-26T06:35:43.425Z,98264.39
2023-03-26T06:38:11.154Z,98263.08
2023-03-26T06:40:38.936Z,98259.91
2023-03-26T06:43:10.669Z,98259.00
2023-03-26T06:45:38.859Z,98262.27
2023-03-26T06:48:06.730Z,98262.05
2023-03-26T06:50:34.713Z,98259.95
2023-03-26T06:53:02.551Z,98259.93
2023-03-26T06:55:31.646Z,98258.64
2023-03-26T06:57:59.515Z,98262.38
2023-03-26T07:00:27.276Z,98258.12
2023-03-26T07:02:55.109Z,98258.38
2023-03-26T07:05:23.008Z,98261.16
2023-03-26T07:07:50.985Z,98262.85
2023-03-26T07:10:18.643Z,98263.48
2023-03-26T07:12:46.716Z,98263.27
2023-03-26T07:15:14.479Z,98265.16
2023-03-26T07:17:42.395Z,98266.34
2023-03-26T07:20:10.698Z,98267.05
2023-03-26T07:22:38.590Z,98269.52
2023-03-26T07:25:06.849Z,98267.98
2023-03-26T07:27:34.634Z,98265.91
2023-03-26T07:30:03.235Z,98263.82
2023-03-26T07:32:31.202Z,98266.60
2023-03-26T07:34:58.959Z,98265.16
2023-03-26T07:37:27.013Z,98260.81
2023-03-26T07:39:54.889Z,98259.35
2023-03-26T07:42:22.636Z,98262.20
2023-03-26T07:44:50.616Z,98259.63
2023-03-26T07:47:18.788Z,98257.95
2023-03-26T07:49:46.758Z,98253.23
2023-03-26T07:52:14.625Z,98252.14
2023-03-26T07:54:42.844Z,98253.83
2023-03-26T07:57:10.957Z,98256.40
2023-03-26T07:59:38.843Z,98253.46
2023-03-26T08:02:06.806Z,98255.95
2023-03-26T08:04:34.780Z,98257.90
2023-03-26T08:07:02.792Z,98257.80
2023-03-26T08:09:30.722Z,98257.47
2023-03-26T08:11:58.988Z,98265.09
2023-03-26T08:14:26.751Z,98263.84
2023-03-26T08:16:54.515Z,98265.85
2023-03-26T08:19:22.792Z,98261.58
2023-03-26T08:21:50.664Z,98262.69
2023-03-26T08:24:21.396Z,98252.72
2023-03-26T08:26:49.264Z,98259.74
2023-03-26T08:29:17.125Z,98248.35
2023-03-26T08:31:45.503Z,98244.95
2023-03-26T08:34:13.576Z,98240.86
2023-03-26T08:36:41.544Z,98237.44
2023-03-26T08:39:09.411Z,98241.70
2023-03-26T08:41:37.183Z,98241.47
2023-03-26T08:44:05.161Z,98237.17
2023-03-26T08:46:33.165Z,98234.58
2023-03-26T08:49:01.797Z,98239.00
2023-03-26T08:51:29.663Z,98231.51
2023-03-26T08:53:57.438Z,98233.00
2023-03-26T08:56:26.227Z,98226.68
2023-03-26T08:58:54.086Z,98223.63
2023-03-26T09:01:22.061Z,98222.35
2023-03-26T09:03:50.942Z,98221.44
2023-03-26T09:06:18.706Z,98219.47
2023-03-26T09:08:53.884Z,98219.33
2023-03-26T09:11:22.681Z,98216.23
2023-03-26T09:13:50.504Z,98216.84
2023-03-26T09:16:18.294Z,98217.48
2023-03-26T09:18:46.845Z,98214.80
2023-03-26T09:21:14.769Z,98213.83
2023-03-26T09:23:42.842Z,98209.56
2023-03-26T09:26:10.867Z,98212.11
2023-03-26T09:28:38.980Z,98210.65
2023-03-26T09:31:07.129Z,98213.55
2023-03-26T09:33:37.220Z,98213.65
2023-03-26T09:36:05.110Z,98211.88
2023-03-26T09:38:32.956Z,98210.14
2023-03-26T09:41:01.541Z,98209.82
2023-03-26T09:43:29.313Z,98203.34
2023-03-26T09:45:57.204Z,98203.30
2023-03-26T09:48:25.242Z,98206.97
2023-03-26T09:50:55.225Z,98207.68
2023-03-26T09:53:23.337Z,98203.13
2023-03-26T09:55:51.296Z,98202.67
2023-03-26T09:58:19.181Z,98201.52
2023-03-26T10:00:47.164Z,98200.86
2023-03-26T10:03:16.256Z,98197.81
2023-03-26T10:05:44.314Z,98193.54
2023-03-26T10:08:12.781Z,98190.09
2023-03-26T10:10:40.755Z,98182.98
2023-03-26T10:13:14.436Z,98192.91
2023-03-26T10:15:42.935Z,98192.30
2023-03-26T10:18:27.586Z,98195.93
2023-03-26T10:20:57.920Z,98201.89
2023-03-26T10:23:26.401Z,98191.56
2023-03-26T10:25:54.263Z,98196.29
2023-03-26T10:28:22.028Z,98194.23
2023-03-26T10:30:49.904Z,98192.66
2023-03-26T10:33:17.760Z,98190.00
2023-03-26T10:35:45.618Z,98186.76
2023-03-26T10:38:13.706Z,98187.13
2023-03-26T10:40:43.330Z,98186.34
2023-03-26T10:43:12.589Z,98187.88
2023-03-26T10:45:40.983Z,98191.54
2023-03-26T10:48:08.877Z,98193.47
2023-03-26T10:50:36.823Z,98191.42
2023-03-26T10:53:04.791Z,98187.50
2023-03-26T10:55:33.171Z,98190.38
2023-03-26T10:58:01.353Z,98196.65
2023-03-26T11:00:30.232Z,98190.73
2023-03-26T11:02:58.024Z,98187.21
2023-03-26T11:05:25.881Z,98185.96
2023-03-26T11:07:54.344Z,98182.08
2023-03-26T11:10:22.006Z,98176.95
2023-03-26T11:12:59.091Z,98176.00
2023-03-26T11:15:27.432Z,98180.91
2023-03-26T11:17:56.455Z,98182.17
2023-03-26T11:20:26.605Z,98176.64
2023-03-26T11:22:54.553Z,98171.57
2023-03-26T11:25:22.427Z,98172.70
2023-03-26T11:27:50.182Z,98170.32
2023-03-26T11:30:17.952Z,98167.32
2023-03-26T11:32:45.740Z,98167.04
2023-03-26T11:35:13.785Z,98164.41
2023-03-26T11:37:41.853Z,98164.07
2023-03-26T11:40:09.727Z,98168.38
2023-03-26T11:42:37.691Z,98158.48
2023-03-26T11:45:05.558Z,98160.89
2023-03-26T11:47:33.301Z,98158.86
2023-03-26T11:50:01.503Z,98164.33
2023-03-26T11:52:29.801Z,98161.92
2023-03-26T11:54:59.684Z,98161.93
2023-03-26T11:57:28.828Z,98168.82
2023-03-26T11:59:57.950Z,98166.25
2023-03-26T12:02:26.481Z,98164.71
2023-03-26T12:04:55.751Z,98161.67
2023-03-26T12:07:23.832Z,98156.04
2023-03-26T12:09:52.209Z,98155.91
2023-03-26T12:12:20.173Z,98151.83
2023-03-26T12:14:47.933Z,98144.80
2023-03-26T12:17:15.802Z,98135.17
2023-03-26T12:19:44.080Z,98134.76
2023-03-26T12:22:13.374Z,98134.06
2023-03-26T12:24:47.795Z,98134.71
2023-03-26T12:27:20.472Z,98127.83
2023-03-26T12:29:48.976Z,98126.55
2023-03-26T12:32:17.095Z,98121.94
2023-03-26T12:34:45.170Z,98116.51
2023-03-26T12:37:12.867Z,98109.30
2023-03-26T12:40:10.666Z,98102.74
2023-03-26T12:44:49.730Z,98095.67
2023-03-26T12:45:19.493Z,98091.33
2023-03-26T12:48:01.762Z,98091.84
2023-03-26T12:50:34.455Z,98089.83
2023-03-26T12:53:03.969Z,98093.25
2023-03-26T12:55:31.826Z,98098.76
2023-03-26T12:58:00.206Z,98104.71
2023-03-26T13:00:47.930Z,98110.34
2023-03-26T13:03:15.944Z,98114.56
2023-03-26T13:05:44.600Z,98120.66
2023-03-26T13:08:12.876Z,98117.24
2023-03-26T13:10:41.570Z,98128.92
2023-03-26T13:13:10.300Z,98134.09
2023-03-26T13:15:39.245Z,98129.54
2023-03-26T13:18:07.945Z,98137.66
2023-03-26T13:20:37.872Z,98146.13
2023-03-26T13:23:06.115Z,98141.33
2023-03-26T13:25:34.082Z,98130.05
2023-03-26T13:28:02.154Z,98124.70
2023-03-26T13:30:31.436Z,98121.13
2023-03-26T13:33:00.093Z,98116.63
2023-03-26T13:35:28.294Z,98111.20
2023-03-26T13:37:56.590Z,98101.79
2023-03-26T13:40:26.095Z,98096.52
2023-03-26T13:42:55.081Z,98092.45
2023-03-26T13:45:23.996Z,98093.77
2023-03-26T13:47:52.042Z,98083.80
2023-03-26T13:50:22.495Z,98078.94
2023-03-26T13:52:55.771Z,98078.09
2023-03-26T13:55:23.637Z,98075.80
2023-03-26T13:57:55.547Z,98076.00
2023-03-26T14:00:24.087Z,98070.42
2023-03-26T14:02:52.645Z,98059.18
2023-03-26T14:05:20.692Z,98063.11
2023-03-26T14:07:48.920Z,98061.03
2023-03-26T14:10:16.982Z,98057.19
2023-03-26T14:12:49.587Z,98053.70
2023-03-26T14:15:17.909Z,98051.23
2023-03-26T14:17:47.815Z,98043.88
2023-03-26T14:20:15.716Z,98042.77
2023-03-26T14:22:43.488Z,98040.73
2023-03-26T14:25:17.277Z,98040.16
2023-03-26T14:27:45.086Z,98038.80
2023-03-26T14:30:12.917Z,98037.93
2023-03-26T14:32:41.107Z,98035.55
2023-03-26T14:35:09.980Z,98035.65
2023-03-26T14:37:38.613Z,98027.84
2023-03-26T14:40:13.085Z,98020.54
2023-03-26T14:42:40.951Z,98020.62
2023-03-26T14:45:08.613Z,98022.78
2023-03-26T14:47:36.760Z,98013.66
2023-03-26T14:50:04.735Z,98016.95
2023-03-26T14:52:32.521Z,98019.02
2023-03-26T14:55:00.497Z,98016.98
2023-03-26T14:57:28.373Z,98016.04
2023-03-26T14:59:56.122Z,98013.45
2023-03-26T15:02:24.358Z,98010.96
2023-03-26T15:04:52.368Z,98012.02
2023-03-26T15:07:20.135Z,98009.91
2023-03-26T15:09:49.434Z,98009.49
2023-03-26T15:12:17.201Z,98009.74
2023-03-26T15:14:46.187Z,98011.09
2023-03-26T15:17:13.954Z,98010.79
2023-03-26T15:19:41.717Z,98013.60
2023-03-26T15:22:10.914Z,98014.63
2023-03-26T15:24:38.582Z,98011.89
2023-03-26T15:27:06.544Z,98013.05
2023-03-26T15:29:35.845Z,98014.59
2023-03-26T15:32:03.769Z,98016.23
2023-03-26T15:34:32.089Z,98015.45
2023-03-26T15:37:00.568Z,98014.88
2023-03-26T15:39:28.333Z,98012.23
2023-03-26T15:41:56.302Z,98012.02
2023-03-26T15:44:25.515Z,98008.79
2023-03-26T15:46:53.675Z,98006.23
2023-03-26T15:49:21.437Z,98005.70
2023-03-26T15:51:49.512Z,98007.25
2023-03-26T15:54:21.629Z,98006.88
2023-03-26T15:56:55.946Z,98007.36
2023-03-26T15:59:29.465Z,98003.25
2023-03-26T16:02:04.320Z,98000.66
2023-03-26T16:04:32.733Z,97998.95
2023-03-26T16:07:03.854Z,97995.70
2023-03-26T16:09:32.641Z,97994.93
2023-03-26T16:12:00.598Z,97995.06
2023-03-26T16:14:28.465Z,97991.67
2023-03-26T16:16:56.228Z,97989.43
2023-03-26T16:19:24.505Z,97987.70
2023-03-26T16:21:52.680Z,97987.20
2023-03-26T16:24:20.750Z,97987.20
2023-03-26T16:26:48.619Z,97985.44
2023-03-26T16:29:16.380Z,97983.36
2023-03-26T16:31:44.672Z,97978.51
2023-03-26T16:34:12.423Z,97981.88
2023-03-26T16:36:40.821Z,97979.15
2023-03-26T16:39:08.985Z,97976.09
2023-03-26T16:41:37.560Z,97980.15
2023-03-26T16:44:05.532Z,97982.31
2023-03-26T16:46:33.637Z,97980.59
2023-03-26T16:49:01.482Z,97976.59
2023-03-26T16:51:29.542Z,97980.65
2023-03-26T16:53:57.946Z,97981.41
2023-03-26T16:56:28.132Z,97983.69
2023-03-26T16:58:56.419Z,97983.06
2023-03-26T17:01:27.613Z,97985.42
2023-03-26T17:03:55.616Z,97988.80
2023-03-26T17:06:23.601Z,97985.88
2023-03-26T17:08:53.579Z,97987.46
2023-03-26T17:11:21.825Z,97986.31
2023-03-26T17:13:50.061Z,97985.34
2023-03-26T17:16:18.077Z,97986.49
2023-03-26T17:18:46.340Z,97988.88
2023-03-26T17:21:14.380Z,97993.56
2023-03-26T17:23:42.449Z,97994.95
2023-03-26T17:26:10.110Z,97992.04
2023-03-26T17:28:37.879Z,97992.90
2023-03-26T17:31:05.881Z,97988.73
2023-03-26T17:33:35.024Z,97994.31
2023-03-26T17:36:02.863Z,97991.91
2023-03-26T17:38:32.275Z,97992.99
2023-03-26T17:41:00.062Z,97987.63
2023-03-26T17:43:28.661Z,97987.50
2023-03-26T17:46:02.913Z,97984.28
2023-03-26T17:48:35.120Z,97978.31
2023-03-26T17:51:02.809Z,97978.85
2023-03-26T17:53:33.344Z,97981.48
2023-03-26T17:56:03.560Z,97983.09
2023-03-26T17:58:32.035Z,97986.84
2023-03-26T18:00:59.724Z,97988.90
2023-03-26T18:03:29.589Z,97991.66
2023-03-26T18:05:58.518Z,97991.98
2023-03-26T18:08:26.375Z,97995.31
2023-03-26T18:10:54.296Z,97989.02
2023-03-26T18:13:22.217Z,97990.75
2023-03-26T18:15:49.971Z,97984.92
2023-03-26T18:18:18.657Z,97987.98
2023-03-26T18:20:47.262Z,97987.77
2023-03-26T18:23:15.011Z,97991.41
2023-03-26T18:25:42.871Z,97989.64
2023-03-26T18:28:10.739Z,97988.56
2023-03-26T18:30:38.706Z,97990.99
2023-03-26T18:33:06.664Z,97995.02
2023-03-26T18:35:34.552Z,97995.58
2023-03-26T18:38:03.748Z,97997.12
2023-03-26T18:40:31.505Z,98003.44
2023-03-26T18:42:59.263Z,98005.38
2023-03-26T18:45:27.439Z,98004.88
2023-03-26T18:47:56.032Z,98013.13
2023-03-26T18:50:23.807Z,98012.34
2023-03-26T18:52:51.550Z,98000.58
2023-03-26T18:55:19.418Z,98004.92
2023-03-26T18:57:47.181Z,98007.33
2023-03-26T19:00:17.097Z,98005.02
2023-03-26T19:02:44.940Z,98001.14
2023-03-26T19:05:12.940Z,97997.45
2023-03-26T19:07:41.134Z,97990.83
2023-03-26T19:10:08.971Z,97987.45
2023-03-26T19:12:37.766Z,97983.27
2023-03-26T19:15:08.100Z,97982.54
2023-03-26T19:17:38.430Z,97986.73
2023-03-26T19:20:09.974Z,97982.92
2023-03-26T19:22:38.241Z,97982.61
2023-03-26T19:25:06.001Z,97977.06
2023-03-26T19:27:33.761Z,97977.63
2023-03-26T19:30:01.526Z,97971.08
2023-03-26T19:32:29.748Z,97966.77
2023-03-26T19:34:57.469Z,97965.39
2023-03-26T19:37:25.340Z,97967.85
2023-03-26T19:39:53.106Z,97961.27
2023-03-26T19:42:21.391Z,97960.30
2023-03-26T19:44:49.455Z,97956.92
2023-03-26T19:47:17.317Z,97948.10
2023-03-26T19:49:45.182Z,97945.00
2023-03-26T19:52:12.950Z,97936.66
2023-03-26T19:54:40.711Z,97933.55
2023-03-26T19:57:28.237Z,97928.76
2023-03-26T19:59:56.207Z,97928.94
2023-03-26T20:02:23.998Z,97924.02
2023-03-26T20:04:51.838Z,97925.00
2023-03-26T20:07:20.273Z,97925.64
2023-03-26T20:09:48.824Z,97921.97
2023-03-26T20:12:20.763Z,97918.64
2023-03-26T20:14:49.041Z,97919.80
2023-03-26T20:17:16.906Z,97915.80
2023-03-26T20:19:44.671Z,97910.59
2023-03-26T20:22:12.433Z,97905.79
2023-03-26T20:24:40.609Z,97902.90
2023-03-26T20:27:08.372Z,97901.89
2023-03-26T20:29:36.953Z,97898.14
2023-03-26T20:32:09.649Z,97901.46
2023-03-26T20:34:38.621Z,97899.53
2023-03-26T20:37:07.206Z,97896.59
2023-03-26T20:39:34.973Z,97887.92
2023-03-26T20:42:02.733Z,97888.50
2023-03-26T20:44:31.016Z,97892.20
2023-03-26T20:46:59.296Z,97893.85
2023-03-26T20:49:29.605Z,97897.52
2023-03-26T20:51:57.882Z,97898.20
2023-03-26T20:54:25.549Z,97900.98
2023-03-26T20:56:53.720Z,97900.98
2023-03-26T20:59:22.406Z,97899.63
2023-03-26T21:01:50.538Z,97907.34
2023-03-26T21:04:19.388Z,97909.88
2023-03-26T21:06:47.029Z,97910.89
2023-03-26T21:09:18.073Z,97905.27
2023-03-26T21:11:46.054Z,97902.95
2023-03-26T21:14:13.903Z,97909.34
2023-03-26T21:16:41.586Z,97910.27
2023-03-26T21:19:10.353Z,97909.41
2023-03-26T21:21:38.013Z,97899.10
2023-03-26T21:24:06.199Z,97894.07
2023-03-26T21:26:33.849Z,97886.58
2023-03-26T21:29:09.404Z,97883.64
2023-03-26T21:31:38.227Z,97877.08
2023-03-26T21:34:06.069Z,97881.09
2023-03-26T21:36:33.865Z,97876.18
2023-03-26T21:39:01.585Z,97876.75
2023-03-26T21:41:29.245Z,97871.38
2023-03-26T21:43:57.009Z,97868.42
2023-03-26T21:46:24.803Z,97875.08
2023-03-26T21:48:52.558Z,97876.17
2023-03-26T21:51:20.306Z,97871.75
2023-03-26T21:53:49.090Z,97867.64
2023-03-26T21:56:16.749Z,97870.81
2023-03-26T21:58:44.514Z,97871.06
2023-03-26T22:01:12.408Z,97870.80
2023-03-26T22:03:40.259Z,97873.73
2023-03-26T22:06:08.119Z,97877.16
2023-03-26T22:08:35.877Z,97871.17
2023-03-26T22:11:03.513Z,97869.42
2023-03-26T22:13:31.305Z,97868.92
2023-03-26T22:15:59.013Z,97863.24
2023-03-26T22:18:30.356Z,97858.27
2023-03-26T22:20:59.405Z,97855.19
2023-03-26T22:23:27.280Z,97852.92
2023-03-26T22:25:55.047Z,97854.58
2023-03-26T22:28:22.704Z,97854.36
2023-03-26T22:30:50.707Z,97850.02
2023-03-26T22:33:18.437Z,97848.13
2023-03-26T22:35:46.327Z,97844.27
2023-03-26T22:38:14.068Z,97846.15
2023-03-26T22:40:41.731Z,97842.73
2023-03-26T22:43:09.605Z,97834.77
2023-03-26T22:45:37.875Z,97826.29
2023-03-26T22:48:05.746Z,97820.05
2023-03-26T22:50:33.538Z,97816.52
2023-03-26T22:53:01.367Z,97816.44
2023-03-26T22:55:29.788Z,97807.85
2023-03-26T22:57:57.933Z,97798.65
2023-03-26T23:00:26.746Z,97797.52
2023-03-26T23:02:56.082Z,97798.59
2023-03-26T23:05:23.977Z,97799.35
2023-03-26T23:07:52.467Z,97799.46
2023-03-26T23:10:21.861Z,97803.70
2023-03-26T23:12:49.846Z,97808.33
2023-03-26T23:15:17.592Z,97809.09
2023-03-26T23:17:45.454Z,97815.29
2023-03-26T23:20:22.753Z,97815.30
2023-03-26T23:22:50.831Z,97813.17
2023-03-26T23:25:18.588Z,97812.25
2023-03-26T23:27:46.244Z,97811.20
2023-03-26T23:30:15.347Z,97811.21
2023-03-26T23:32:43.586Z,97808.96
2023-03-26T23:35:11.483Z,97810.86
2023-03-26T23:37:42.681Z,97810.27
2023-03-26T23:40:10.907Z,97801.84
2023-03-26T23:42:38.671Z,97802.23
2023-03-26T23:45:06.333Z,97797.21
2023-03-26T23:47:37.598Z,97795.35
2023-03-26T23:50:05.356Z,97787.17
2023-03-26T23:52:33.107Z,97784.71
2023-03-26T23:55:01.380Z,97789.14
2023-03-26T23:57:29.346Z,97786.42
2023-03-26T23:59:57.010Z,97787.15
